Time;durP1;ratioP1;P1;durP2;ratioP2;P2;SDS_P1;SDS_P2;PMS_P1;PMS_P2;Temp;Humidity;BMP_temperature;BMP_pressure;BME280_temperature;BME280_humidity;BME280_pressure;Samples;Min_cycle;Max_cycle;Signal;HPM_P1;HPM_P2
2022/01/24 00:00:24;;;;;;;32.90;17.50;;;;;;;-5.77;78.04;102435.69;84773;1328;26114;-81
2022/01/24 00:02:47;;;;;;;32.50;16.60;;;;;;;-5.77;77.89;102430.09;84068;1326;1002682;-78
2022/01/24 00:04:59;;;;;;;30.50;16.80;;;;;;;-5.78;77.91;102432.39;84799;1326;22606;-80
2022/01/24 00:07:09;;;;;;;32.00;16.70;;;;;;;-5.80;77.79;102432.95;84817;1321;22594;-80
2022/01/24 00:09:21;;;;;;;29.80;14.60;;;;;;;-5.82;77.67;102428.92;84069;1326;1003060;-79
2022/01/24 00:11:41;;;;;;;35.80;17.00;;;;;;;-5.82;77.79;102430.09;84729;1325;22587;-79
2022/01/24 00:14:38;;;;;;;28.80;16.00;;;;;;;-5.81;77.86;102440.40;84815;1324;22561;-79
2022/01/24 00:17:02;;;;;;;27.40;14.90;;;;;;;-5.77;77.94;102443.84;84835;1326;22888;-79
2022/01/24 00:26:46;;;;;;;30.20;16.10;;;;;;;-5.54;78.28;102448.28;84789;1327;22600;-85
2022/01/24 00:28:56;;;;;;;33.70;17.50;;;;;;;-5.50;78.50;102449.76;84776;1326;22639;-85
2022/01/24 00:31:05;;;;;;;34.30;16.80;;;;;;;-5.45;78.39;102453.27;84838;1324;22918;-79
2022/01/24 00:33:15;;;;;;;37.40;17.00;;;;;;;-5.41;78.29;102455.70;84682;1331;22606;-80
2022/01/24 00:35:24;;;;;;;33.20;18.20;;;;;;;-5.39;78.25;102455.82;84690;1323;22621;-85
2022/01/24 00:37:34;;;;;;;34.20;17.10;;;;;;;-5.37;78.14;102452.01;84789;1326;22614;-86
2022/01/24 00:39:44;;;;;;;27.50;15.80;;;;;;;-5.34;78.06;102453.42;84700;1321;22630;-86
2022/01/24 00:42:05;;;;;;;32.00;16.40;;;;;;;-5.31;78.13;102451.06;84784;1326;22951;-80
2022/01/24 00:44:41;;;;;;;31.00;17.00;;;;;;;-5.28;78.02;102446.65;84754;1326;22650;-78
2022/01/24 00:46:57;;;;;;;30.00;16.00;;;;;;;-5.19;77.81;102452.63;84798;1326;23863;-84
2022/01/24 00:49:25;;;;;;;31.90;17.00;;;;;;;-5.10;77.67;102451.11;84703;1329;24372;-85
2022/01/24 00:54:42;;;;;;;33.80;19.20;;;;;;;-4.93;77.22;102444.12;84702;1331;22606;-85
2022/01/24 00:56:32;;;;;;;38.70;18.50;;;;;;;-4.87;76.94;102434.24;84719;1326;22600;-85
2022/01/24 00:58:46;;;;;;;36.20;21.40;;;;;;;-4.81;77.11;102434.23;84771;1326;23330;-83
2022/01/24 01:00:55;;;;;;;35.10;18.90;;;;;;;-4.78;76.91;102435.44;84101;1327;1002765;-79
2022/01/24 01:03:08;;;;;;;33.60;18.60;;;;;;;-4.76;76.71;102439.13;84682;1326;22678;-79
2022/01/24 01:05:34;;;;;;;37.40;18.80;;;;;;;-4.75;76.18;102439.52;84071;1326;1003181;-79
2022/01/24 01:07:56;;;;;;;36.60;18.50;;;;;;;-4.74;76.15;102437.23;84771;1326;23878;-85
2022/01/24 01:20:00;;;;;;;38.30;18.70;;;;;;;-4.70;75.55;102418.02;84831;1326;22659;-86
2022/01/24 01:22:08;;;;;;;;;;;;;;;-4.69;75.20;102418.73;84750;1331;22612;-79
2022/01/24 01:24:20;;;;;;;35.50;18.10;;;;;;;-4.69;75.24;102427.44;84791;1326;22687;-80
2022/01/24 01:26:35;;;;;;;33.10;17.30;;;;;;;-4.66;75.01;102431.72;84838;1330;22606;-89
2022/01/24 01:28:53;;;;;;;36.70;18.10;;;;;;;-4.61;74.91;102431.14;84817;1330;22733;-87
2022/01/24 01:31:10;;;;;;;36.50;17.30;;;;;;;-4.55;74.63;102425.66;84691;1329;22732;-86
2022/01/24 01:33:27;;;;;;;33.90;18.00;;;;;;;-4.49;74.63;102419.04;84723;1328;22598;-85
2022/01/24 01:35:56;;;;;;;35.60;17.80;;;;;;;-4.42;74.63;102424.18;84793;1327;22703;-86
2022/01/24 01:52:18;;;;;;;35.10;18.00;;;;;;;-4.31;74.25;102423.42;84781;1327;26705;-88
2022/01/24 01:53:27;;;;;;;35.00;17.60;;;;;;;-4.24;73.98;102420.06;84790;1327;22625;-77
2022/01/24 01:55:40;;;;;;;35.40;18.00;;;;;;;-4.24;73.91;102425.38;84810;1326;22609;-78
2022/01/24 01:57:53;;;;;;;29.30;16.20;;;;;;;-4.24;73.77;102430.15;84779;1324;22596;-77
2022/01/24 02:00:03;;;;;;;29.80;15.50;;;;;;;-4.23;73.56;102432.94;84776;1326;22685;-77
2022/01/24 02:02:12;;;;;;;30.60;16.10;;;;;;;-4.22;73.50;102432.95;84803;1323;25166;-86
2022/01/24 02:04:21;;;;;;;29.40;15.10;;;;;;;-4.23;73.41;102434.49;84778;1326;26782;-86
2022/01/24 02:06:31;;;;;;;31.80;15.60;;;;;;;-4.22;73.41;102435.17;84040;1320;1003023;-77
2022/01/24 02:08:42;;;;;;;30.50;14.90;;;;;;;-4.21;73.22;102434.73;84792;1326;22603;-78
2022/01/24 02:10:52;;;;;;;31.60;16.90;;;;;;;-4.19;73.23;102437.09;84707;1326;22728;-78
2022/01/24 02:13:03;;;;;;;31.50;17.20;;;;;;;-4.14;73.34;102434.41;84593;1327;22598;-77
2022/01/24 02:15:22;;;;;;;28.60;15.90;;;;;;;-4.09;73.19;102428.41;84800;1326;24235;-77
2022/01/24 02:17:43;;;;;;;33.60;16.00;;;;;;;-4.02;73.33;102424.19;84731;1325;24274;-77
2022/01/24 02:20:11;;;;;;;31.80;15.90;;;;;;;-3.97;73.22;102424.30;84739;1327;24203;-78
2022/01/24 02:22:45;;;;;;;30.20;15.60;;;;;;;-3.91;72.80;102429.88;84657;1329;22923;-77
2022/01/24 02:24:59;;;;;;;34.90;15.60;;;;;;;-3.88;72.61;102433.29;84648;1329;22596;-77
2022/01/24 02:27:09;;;;;;;32.70;16.90;;;;;;;-3.86;72.37;102436.65;84775;1326;22602;-88
2022/01/24 02:29:29;;;;;;;33.00;17.60;;;;;;;-3.86;72.19;102435.77;84763;1326;22833;-87
2022/01/24 02:31:46;;;;;;;30.50;17.00;;;;;;;-3.86;72.13;102437.83;84776;1326;22684;-77
2022/01/24 02:33:55;;;;;;;30.30;15.70;;;;;;;-3.86;72.13;102438.16;84742;1326;22584;-77
2022/01/24 02:36:08;;;;;;;33.90;17.30;;;;;;;-3.87;72.22;102436.39;84767;1325;22598;-77
2022/01/24 02:38:27;;;;;;;36.60;17.90;;;;;;;-3.87;71.97;102430.94;84660;1328;22840;-78
2022/01/24 02:40:40;;;;;;;35.90;18.30;;;;;;;-3.88;72.01;102433.95;84684;1329;22611;-77
2022/01/24 02:50:30;;;;;;;31.90;17.20;;;;;;;-3.93;71.67;102434.23;84756;1326;24252;-78
2022/01/24 02:52:42;;;;;;;39.40;18.80;;;;;;;-3.93;71.58;102436.09;84785;1321;22627;-85
2022/01/24 02:54:51;;;;;;;34.90;16.70;;;;;;;-3.94;71.73;102437.26;83968;1329;1003412;-86
2022/01/24 02:57:04;;;;;;;32.70;17.60;;;;;;;-3.94;71.56;102432.95;84713;1328;25387;-85
2022/01/24 02:59:13;;;;;;;36.60;17.40;;;;;;;-3.95;71.39;102433.25;84651;1330;22633;-86
2022/01/24 03:01:25;;;;;;;30.90;16.30;;;;;;;-3.97;71.36;102432.33;84015;1327;1003599;-86
2022/01/24 03:03:34;;;;;;;32.80;16.90;;;;;;;-3.96;71.48;102434.23;84802;1329;24279;-88
2022/01/24 03:05:47;;;;;;;32.60;16.60;;;;;;;-3.94;71.17;102434.88;84760;1325;22626;-78
2022/01/24 03:07:56;;;;;;;33.20;16.20;;;;;;;-3.90;71.20;102427.89;84764;1324;22988;-78
2022/01/24 03:10:14;;;;;;;35.30;16.50;;;;;;;-3.87;71.14;102428.71;84767;1328;22612;-86
2022/01/24 03:12:40;;;;;;;34.70;16.70;;;;;;;-3.84;71.31;102430.08;84557;1330;22636;-78
2022/01/24 03:14:53;;;;;;;30.10;16.00;;;;;;;-3.80;71.32;102432.02;83975;1329;1003600;-78
2022/01/24 03:17:04;;;;;;;32.80;16.20;;;;;;;-3.77;71.08;102430.30;84619;1331;22724;-77
2022/01/24 03:19:17;;;;;;;34.30;17.60;;;;;;;-3.74;71.05;102429.29;84657;1329;22633;-77
2022/01/24 03:21:26;;;;;;;32.40;17.20;;;;;;;-3.72;71.01;102434.16;84777;1327;24208;-87
2022/01/24 03:23:38;;;;;;;28.30;14.90;;;;;;;-3.71;71.10;102433.54;84745;1327;22667;-86
2022/01/24 03:25:51;;;;;;;28.40;15.20;;;;;;;-3.70;71.02;102434.77;84665;1321;22877;-78
2022/01/24 03:28:04;;;;;;;28.90;15.20;;;;;;;-3.70;70.95;102436.96;84667;1320;22620;-78
2022/01/24 03:30:15;;;;;;;27.90;16.40;;;;;;;-3.70;71.30;102435.59;84743;1329;23966;-78
2022/01/24 03:32:28;;;;;;;28.20;15.00;;;;;;;-3.71;70.97;102438.31;84772;1326;22584;-77
2022/01/24 03:34:37;;;;;;;31.60;17.10;;;;;;;-3.71;70.85;102437.09;84748;1326;26523;-78
2022/01/24 03:36:47;;;;;;;30.40;16.90;;;;;;;-3.73;70.98;102430.70;84715;1328;22693;-78
2022/01/24 03:38:56;;;;;;;28.00;14.50;;;;;;;-3.74;70.91;102426.06;84764;1327;22615;-78
2022/01/24 03:41:05;;;;;;;25.10;14.40;;;;;;;-3.75;70.86;102424.80;84799;1327;25302;-87
2022/01/24 03:43:18;;;;;;;30.90;15.80;;;;;;;-3.77;71.12;102424.52;84055;1326;1003815;-87
2022/01/24 03:45:40;;;;;;;27.60;13.50;;;;;;;-3.76;70.90;102427.09;84792;1322;22662;-85
2022/01/24 03:48:03;;;;;;;31.70;15.60;;;;;;;-3.75;71.10;102426.84;84695;1328;24324;-85
2022/01/24 03:50:20;;;;;;;25.20;13.70;;;;;;;-3.72;71.02;102424.45;84821;1322;24362;-86
2022/01/24 03:52:32;;;;;;;30.50;15.30;;;;;;;-3.69;70.94;102419.80;84774;1326;22639;-86
2022/01/24 03:54:44;;;;;;;29.60;15.60;;;;;;;-3.66;70.85;102422.70;84750;1326;22611;-85
2022/01/24 03:56:53;;;;;;;33.00;15.10;;;;;;;-3.63;71.01;102422.86;84780;1326;22639;-77
2022/01/24 03:59:06;;;;;;;32.60;16.40;;;;;;;-3.61;70.95;102420.23;84642;1325;22591;-78
2022/01/24 04:01:17;;;;;;;26.20;15.50;;;;;;;-3.58;70.87;102418.17;84808;1326;22647;-86
2022/01/24 04:03:26;;;;;;;29.40;15.60;;;;;;;-3.57;70.77;102419.91;84745;1328;25334;-86
2022/01/24 04:05:35;;;;;;;30.70;16.00;;;;;;;-3.56;70.69;102419.09;84735;1328;25502;-85
2022/01/24 04:07:48;;;;;;;29.10;15.30;;;;;;;-3.56;70.63;102422.54;84794;1327;22590;-85
2022/01/24 04:10:03;;;;;;;27.50;15.10;;;;;;;-3.56;70.47;102422.50;84701;1329;25309;-86
2022/01/24 04:12:16;;;;;;;31.50;15.80;;;;;;;-3.58;70.61;102424.48;84813;1326;22614;-85
2022/01/24 04:14:33;;;;;;;31.60;17.00;;;;;;;-3.61;70.31;102425.66;84662;1329;22614;-86
2022/01/24 04:16:52;;;;;;;33.00;16.20;;;;;;;-3.63;70.43;102422.31;84798;1326;24415;-86
2022/01/24 04:19:26;;;;;;;31.00;15.70;;;;;;;-3.65;70.50;102424.48;83992;1325;1172234;-86
2022/01/24 04:21:38;;;;;;;32.20;16.10;;;;;;;-3.65;70.65;102423.43;84691;1328;22648;-79
2022/01/24 04:23:53;;;;;;;32.30;15.70;;;;;;;-3.65;70.51;102424.30;84688;1329;25462;-77
2022/01/24 04:26:02;;;;;;;33.20;15.40;;;;;;;-3.65;70.62;102429.58;84673;1324;22738;-77
2022/01/24 04:28:11;;;;;;;28.50;14.40;;;;;;;-3.66;70.45;102428.50;84735;1323;22610;-79
2022/01/24 04:30:27;;;;;;;36.20;16.30;;;;;;;-3.67;70.57;102427.79;84790;1321;22810;-85
2022/01/24 04:32:39;;;;;;;28.80;14.10;;;;;;;-3.67;70.24;102428.94;84819;1330;23925;-88
2022/01/24 04:34:49;;;;;;;26.40;14.60;;;;;;;-3.67;70.17;102426.25;84098;1326;1003577;-87
2022/01/24 04:36:58;;;;;;;29.10;16.00;;;;;;;-3.65;70.24;102426.19;84831;1323;26075;-87
2022/01/24 04:39:10;;;;;;;29.50;14.60;;;;;;;-3.60;70.31;102429.45;84788;1326;22636;-86
2022/01/24 04:41:27;;;;;;;29.70;16.20;;;;;;;-3.57;70.30;102426.39;84813;1326;22614;-78
2022/01/24 04:43:51;;;;;;;32.20;16.30;;;;;;;-3.55;70.30;102429.55;84753;1326;24383;-78
2022/01/24 04:46:09;;;;;;;30.90;16.10;;;;;;;-3.53;70.37;102431.23;84089;1321;1003055;-87
2022/01/24 04:51:01;;;;;;;32.80;16.00;;;;;;;-3.52;70.02;102426.67;84788;1326;23893;-78
2022/01/24 04:53:27;;;;;;;26.80;14.60;;;;;;;-3.51;69.83;102425.86;84791;1330;24275;-79
2022/01/24 04:55:37;;;;;;;29.10;14.50;;;;;;;-3.51;70.13;102427.73;84787;1326;24221;-77
2022/01/24 04:57:47;;;;;;;32.20;16.40;;;;;;;-3.51;69.88;102430.97;84776;1326;22593;-80
2022/01/24 05:00:01;;;;;;;31.70;16.30;;;;;;;-3.52;69.87;102432.45;84082;1326;1003672;-78
2022/01/24 05:02:14;;;;;;;29.00;14.50;;;;;;;-3.54;69.93;102432.02;84725;1326;22608;-81
2022/01/24 05:04:27;;;;;;;27.00;14.80;;;;;;;-3.54;70.01;102438.65;84750;1328;25310;-77
2022/01/24 05:06:36;;;;;;;28.90;14.50;;;;;;;-3.55;69.87;102442.38;84731;1328;23996;-86
2022/01/24 05:08:49;;;;;;;26.30;14.70;;;;;;;-3.55;69.69;102444.05;84786;1326;24291;-86
2022/01/24 05:11:04;;;;;;;30.70;14.80;;;;;;;-3.56;69.78;102440.09;84810;1328;24133;-78
2022/01/24 05:25:32;;;;;;;39.20;18.00;;;;;;;-3.52;69.65;102438.80;84792;1326;24075;-85
2022/01/24 05:27:42;;;;;;;33.40;16.40;;;;;;;-3.48;69.69;102437.48;84758;1328;22688;-79
2022/01/24 05:29:55;;;;;;;33.70;17.20;;;;;;;-3.43;69.69;102439.77;84766;1326;23970;-86
2022/01/24 05:32:09;;;;;;;29.50;15.40;;;;;;;-3.40;69.55;102445.41;84760;1329;23916;-78
2022/01/24 05:34:23;;;;;;;29.00;15.50;;;;;;;-3.39;69.56;102450.23;84754;1328;25505;-86
2022/01/24 05:36:32;;;;;;;35.00;15.20;;;;;;;-3.38;69.40;102446.52;84101;1327;1003166;-86
2022/01/24 05:38:44;;;;;;;30.90;15.20;;;;;;;-3.34;69.50;102445.30;84796;1327;22630;-86
2022/01/24 05:40:53;;;;;;;28.50;15.40;;;;;;;-3.34;69.42;102446.36;84675;1329;24255;-86
2022/01/24 05:43:02;;;;;;;31.30;14.90;;;;;;;-3.34;69.53;102449.79;84719;1328;22622;-86
2022/01/24 05:45:13;;;;;;;33.30;17.20;;;;;;;-3.34;69.49;102454.39;84709;1328;22590;-85
2022/01/24 05:47:22;;;;;;;31.40;16.40;;;;;;;-3.36;69.47;102458.73;84806;1326;22587;-85
2022/01/24 05:49:31;;;;;;;33.10;17.20;;;;;;;-3.38;69.39;102459.14;84085;1326;1003272;-84
2022/01/24 05:51:44;;;;;;;30.90;16.40;;;;;;;-3.38;69.49;102461.17;84736;1323;22726;-78
2022/01/24 05:53:53;;;;;;;35.20;16.20;;;;;;;-3.39;69.35;102464.90;84819;1326;22616;-77
2022/01/24 05:56:02;;;;;;;33.40;19.80;;;;;;;-3.40;69.42;102468.76;84782;1324;22617;-79
2022/01/24 05:58:14;;;;;;;32.00;16.20;;;;;;;-3.41;69.73;102469.08;84652;1329;22726;-78
2022/01/24 06:00:24;;;;;;;33.70;16.80;;;;;;;-3.41;69.77;102469.73;84789;1327;22928;-79
2022/01/24 06:02:33;;;;;;;36.00;18.40;;;;;;;-3.42;69.78;102471.39;84112;1323;1003179;-78
2022/01/24 06:04:45;;;;;;;33.40;18.40;;;;;;;-3.42;69.80;102471.88;84789;1327;22653;-76
2022/01/24 06:06:54;;;;;;;31.00;16.50;;;;;;;-3.42;69.66;102470.02;84803;1326;24292;-77
2022/01/24 06:09:06;;;;;;;32.40;17.40;;;;;;;-3.40;69.66;102474.88;84765;1325;25462;-77
2022/01/24 06:11:15;;;;;;;32.40;16.70;;;;;;;-3.39;69.65;102471.41;84660;1329;23035;-77
2022/01/24 06:13:24;;;;;;;35.90;17.90;;;;;;;-3.36;69.66;102465.36;84796;1326;25437;-77
2022/01/24 06:15:33;;;;;;;34.50;17.30;;;;;;;-3.33;69.78;102463.32;84806;1326;22601;-82
2022/01/24 06:17:42;;;;;;;38.80;20.60;;;;;;;-3.29;69.67;102455.70;84777;1326;22619;-82
2022/01/24 06:19:58;;;;;;;35.60;17.50;;;;;;;-3.26;69.51;102452.73;84791;1326;22637;-78
2022/01/24 06:22:09;;;;;;;42.80;19.40;;;;;;;-3.25;69.49;102456.56;84701;1328;22687;-87
2022/01/24 06:24:21;;;;;;;44.80;20.10;;;;;;;-3.26;69.46;102460.75;84637;1329;22875;-86
2022/01/24 06:26:30;;;;;;;41.00;20.80;;;;;;;-3.26;69.44;102461.27;84766;1326;23816;-90
2022/01/24 06:28:40;;;;;;;47.80;22.90;;;;;;;-3.27;69.44;102460.73;84795;1326;22622;-87
2022/01/24 06:30:50;;;;;;;48.00;22.00;;;;;;;-3.28;69.65;102460.52;83941;1328;1005182;-92
2022/01/24 06:32:59;;;;;;;46.00;24.60;;;;;;;-3.29;69.30;102466.42;84786;1323;24119;-92
2022/01/24 06:35:14;;;;;;;53.80;23.80;;;;;;;-3.32;69.43;102462.17;84829;1326;22625;-92
2022/01/24 06:37:24;;;;;;;44.10;22.10;;;;;;;-3.33;69.50;102459.04;84667;1326;22930;-74
2022/01/24 06:39:34;;;;;;;48.60;22.60;;;;;;;-3.34;69.55;102455.22;84795;1326;22566;-73
2022/01/24 06:41:52;;;;;;;48.50;23.20;;;;;;;-3.35;69.56;102456.71;84734;1329;22603;-73
2022/01/24 06:44:01;;;;;;;47.40;22.90;;;;;;;-3.36;69.49;102452.90;83976;1327;1003373;-74
2022/01/24 06:46:13;;;;;;;46.70;21.30;;;;;;;-3.38;69.59;102450.94;84649;1331;22618;-83
2022/01/24 06:48:22;;;;;;;47.90;22.30;;;;;;;-3.39;69.53;102448.34;84761;1325;22628;-88
2022/01/24 06:50:31;;;;;;;39.80;19.60;;;;;;;-3.39;69.35;102450.40;84800;1327;25455;-86
2022/01/24 06:52:45;;;;;;;41.10;20.60;;;;;;;-3.38;69.29;102452.30;84781;1327;22886;-85
2022/01/24 06:54:55;;;;;;;40.10;20.00;;;;;;;-3.37;69.37;102454.40;84776;1322;22624;-87
2022/01/24 06:57:05;;;;;;;43.60;21.40;;;;;;;-3.36;69.36;102459.40;84723;1331;26565;-86
2022/01/24 06:59:18;;;;;;;41.30;21.60;;;;;;;-3.34;69.43;102460.39;84847;1326;22605;-86
2022/01/24 07:01:32;;;;;;;43.40;21.40;;;;;;;-3.29;69.71;102460.27;84876;1326;25503;-77
2022/01/24 07:03:42;;;;;;;43.20;20.30;;;;;;;-3.27;69.76;102465.36;84635;1329;22607;-78
2022/01/24 07:05:52;;;;;;;40.00;19.80;;;;;;;-3.23;69.72;102469.31;84749;1329;22832;-78
2022/01/24 07:08:01;;;;;;;42.70;19.90;;;;;;;-3.22;69.61;102472.45;84675;1328;22638;-77
2022/01/24 07:10:14;;;;;;;39.30;21.20;;;;;;;-3.21;69.45;102471.98;84742;1325;22633;-78
2022/01/24 07:12:26;;;;;;;40.20;19.90;;;;;;;-3.19;69.59;102477.86;84718;1330;22985;-90
2022/01/24 07:14:35;;;;;;;35.90;19.70;;;;;;;-3.17;69.71;102481.41;84787;1330;22655;-89
2022/01/24 07:17:07;;;;;;;45.20;19.80;;;;;;;-3.15;69.66;102478.76;84658;1329;22597;-76
2022/01/24 07:19:19;;;;;;;43.20;21.00;;;;;;;-3.14;69.84;102477.48;84766;1328;23973;-77
2022/01/24 07:21:28;;;;;;;36.70;19.80;;;;;;;-3.13;69.54;102478.17;84080;1328;1003595;-84
2022/01/24 07:23:38;;;;;;;39.90;20.80;;;;;;;-3.12;69.55;102477.91;84763;1327;23942;-85
2022/01/24 07:25:50;;;;;;;42.20;21.00;;;;;;;-3.10;69.54;102476.11;84715;1328;24385;-78
2022/01/24 07:27:59;;;;;;;40.60;20.60;;;;;;;-3.07;69.41;102480.86;84063;1326;1003128;-77
2022/01/24 07:30:16;;;;;;;44.10;21.70;;;;;;;-3.05;69.34;102479.41;84654;1331;22616;-78
2022/01/24 07:32:29;;;;;;;39.20;19.30;;;;;;;-3.03;69.50;102478.70;84686;1328;24246;-78
2022/01/24 07:34:38;;;;;;;41.80;21.20;;;;;;;-3.00;69.49;102477.15;84699;1329;22679;-77
2022/01/24 07:36:51;;;;;;;96.60;48.00;;;;;;;-2.94;69.45;102479.16;84738;1327;22863;-84
2022/01/24 07:39:01;;;;;;;55.90;28.30;;;;;;;-2.89;69.37;102480.44;84697;1328;22709;-84
2022/01/24 07:41:17;;;;;;;40.80;20.40;;;;;;;-2.82;69.26;102483.35;84772;1327;24377;-78
2022/01/24 07:43:30;;;;;;;42.80;20.80;;;;;;;-2.75;69.20;102485.56;84643;1328;22589;-76
2022/01/24 07:45:41;;;;;;;47.20;21.40;;;;;;;-2.70;69.19;102485.52;84801;1326;22589;-76
2022/01/24 07:47:51;;;;;;;42.50;22.30;;;;;;;-2.66;69.17;102483.98;84057;1320;1003928;-78
2022/01/24 07:50:03;;;;;;;30.60;16.90;;;;;;;-2.62;69.06;102483.17;84762;1326;24286;-77
2022/01/24 07:52:13;;;;;;;39.10;19.90;;;;;;;-2.58;69.12;102484.86;84806;1327;23950;-78
2022/01/24 07:54:29;;;;;;;43.60;20.80;;;;;;;-2.54;69.04;102480.64;84781;1326;22593;-77
2022/01/24 07:56:52;;;;;;;38.80;20.30;;;;;;;-2.52;68.69;102478.69;84674;1327;22591;-80
2022/01/24 07:59:01;;;;;;;42.00;21.20;;;;;;;-2.50;68.65;102478.80;83965;1331;1003739;-84
2022/01/24 08:01:21;;;;;;;40.80;21.10;;;;;;;-2.48;68.61;102476.50;84678;1326;22823;-78
2022/01/24 08:03:33;;;;;;;45.50;20.70;;;;;;;-2.46;68.60;102474.02;84674;1331;25367;-77
2022/01/24 08:05:46;;;;;;;44.00;20.90;;;;;;;-2.45;68.75;102471.18;84648;1325;23259;-82
2022/01/24 08:07:55;;;;;;;45.00;22.30;;;;;;;-2.42;68.43;102468.74;84755;1327;22600;-83
2022/01/24 08:10:09;;;;;;;45.20;21.80;;;;;;;-2.41;68.42;102468.31;84793;1326;24272;-83
2022/01/24 08:12:21;;;;;;;46.60;23.60;;;;;;;-2.39;68.60;102476.27;84794;1326;22616;-77
2022/01/24 08:14:34;;;;;;;43.30;20.90;;;;;;;-2.39;68.22;102473.87;84679;1329;22597;-77
2022/01/24 08:16:46;;;;;;;46.70;20.90;;;;;;;-2.38;68.33;102474.77;84780;1320;22715;-78
2022/01/24 08:18:57;;;;;;;49.30;21.30;;;;;;;-2.37;68.24;102471.58;84766;1325;25029;-78
2022/01/24 08:21:08;;;;;;;39.30;19.10;;;;;;;-2.35;68.15;102467.73;84806;1326;22632;-78
2022/01/24 08:23:21;;;;;;;44.40;19.90;;;;;;;-2.31;68.16;102467.73;84771;1330;22619;-78
2022/01/24 08:25:34;;;;;;;44.00;21.70;;;;;;;-2.28;68.22;102467.19;84670;1328;25436;-82
2022/01/24 08:27:43;;;;;;;44.40;22.70;;;;;;;-2.24;68.00;102459.19;84712;1329;22666;-83
2022/01/24 08:29:55;;;;;;;50.20;23.50;;;;;;;-2.19;68.05;102459.11;84091;1327;1003282;-82
2022/01/24 08:32:09;;;;;;;41.60;21.70;;;;;;;-2.14;68.30;102462.94;84673;1329;25499;-83
2022/01/24 08:34:18;;;;;;;51.00;21.80;;;;;;;-2.09;68.34;102462.66;84789;1326;22596;-83
2022/01/24 08:36:33;;;;;;;46.80;24.10;;;;;;;-2.04;68.27;102467.64;84768;1326;23898;-77
2022/01/24 08:38:46;;;;;;;43.30;21.70;;;;;;;-2.00;68.28;102469.90;83867;1332;1003460;-78
2022/01/24 08:41:05;;;;;;;49.30;21.90;;;;;;;-1.98;68.05;102471.70;84785;1326;25285;-83
2022/01/24 08:43:22;;;;;;;44.10;20.60;;;;;;;-1.96;67.95;102475.23;84692;1329;22684;-83
2022/01/24 08:45:50;;;;;;;45.70;21.30;;;;;;;-1.93;67.94;102473.63;84708;1321;23063;-82
2022/01/24 08:48:02;;;;;;;45.40;22.30;;;;;;;-1.89;67.69;102468.88;84799;1326;24063;-82
2022/01/24 08:50:20;;;;;;;47.50;21.80;;;;;;;-1.87;67.52;102466.39;84703;1327;22596;-83
2022/01/24 08:52:31;;;;;;;46.10;22.40;;;;;;;-1.84;67.61;102465.86;84679;1330;26032;-83
2022/01/24 08:54:41;;;;;;;45.00;21.50;;;;;;;-1.79;67.61;102462.30;84622;1329;24323;-82
2022/01/24 08:56:50;;;;;;;43.70;22.00;;;;;;;-1.75;67.51;102463.36;84706;1328;22613;-83
2022/01/24 08:59:09;;;;;;;39.60;21.40;;;;;;;-1.71;67.50;102462.35;84668;1329;22586;-82
2022/01/24 09:01:21;;;;;;;40.50;22.20;;;;;;;-1.66;67.62;102458.49;84807;1327;22865;-77
2022/01/24 09:03:35;;;;;;;46.90;22.80;;;;;;;-1.61;67.84;102453.39;84792;1329;24271;-76
2022/01/24 09:05:49;;;;;;;44.30;21.10;;;;;;;-1.57;67.30;102452.73;84779;1327;25327;-77
2022/01/24 09:07:58;;;;;;;62.30;25.20;;;;;;;-1.55;67.49;102451.78;84791;1328;23569;-77
2022/01/24 09:10:10;;;;;;;45.00;21.60;;;;;;;-1.52;67.13;102448.33;84709;1323;22739;-76
2022/01/24 09:12:24;;;;;;;44.10;21.10;;;;;;;-1.50;67.00;102456.80;84793;1326;22630;-82
2022/01/24 09:14:36;;;;;;;48.70;23.10;;;;;;;-1.48;66.86;102458.55;84787;1327;24097;-82
2022/01/24 09:16:48;;;;;;;37.00;21.10;;;;;;;-1.47;66.83;102454.71;84753;1329;24507;-81
2022/01/24 09:19:00;;;;;;;44.80;22.10;;;;;;;-1.44;67.16;102456.34;84691;1325;25514;-84
2022/01/24 09:21:14;;;;;;;42.40;21.30;;;;;;;-1.41;67.07;102458.57;84702;1327;22595;-76
2022/01/24 09:23:24;;;;;;;44.20;20.70;;;;;;;-1.40;66.95;102457.94;84628;1320;22656;-76
2022/01/24 09:25:33;;;;;;;38.90;20.00;;;;;;;-1.37;66.98;102457.20;84786;1326;23803;-81
2022/01/24 09:27:45;;;;;;;45.50;22.80;;;;;;;-1.34;66.96;102454.95;84654;1329;22656;-81
2022/01/24 09:29:54;;;;;;;40.60;21.70;;;;;;;-1.29;67.05;102448.98;84786;1326;23981;-83
2022/01/24 09:32:09;;;;;;;44.40;19.90;;;;;;;-1.23;66.99;102450.27;84743;1329;22626;-82
2022/01/24 09:34:21;;;;;;;38.30;20.00;;;;;;;-1.17;67.09;102451.89;84673;1329;22604;-82
2022/01/24 09:36:33;;;;;;;39.90;19.50;;;;;;;-1.07;67.44;102454.75;84739;1329;24068;-77
2022/01/24 09:38:46;;;;;;;40.60;19.50;;;;;;;-0.97;66.82;102453.64;84725;1328;22625;-74
2022/01/24 09:40:59;;;;;;;36.10;19.10;;;;;;;-0.87;66.65;102448.73;84625;1329;22638;-83
2022/01/24 09:43:13;;;;;;;39.30;19.90;;;;;;;-0.79;66.33;102447.53;84657;1329;22620;-83
2022/01/24 09:45:25;;;;;;;37.70;19.50;;;;;;;-0.74;66.31;102447.70;84773;1326;24267;-80
2022/01/24 09:47:35;;;;;;;41.70;21.00;;;;;;;-0.69;66.14;102445.38;84778;1326;22596;-82
2022/01/24 09:49:48;;;;;;;41.40;20.50;;;;;;;-0.65;66.13;102441.77;84768;1326;24119;-81
2022/01/24 09:51:58;;;;;;;40.90;20.10;;;;;;;-0.61;65.83;102450.16;84793;1327;22607;-73
2022/01/24 09:54:08;;;;;;;38.20;19.50;;;;;;;-0.57;65.58;102448.95;84751;1325;22667;-73
2022/01/24 09:56:18;;;;;;;44.50;21.50;;;;;;;-0.57;65.40;102448.79;84744;1326;26648;-74
2022/01/24 09:58:31;;;;;;;41.90;21.40;;;;;;;-0.53;65.99;102443.98;84751;1326;22628;-74
2022/01/24 10:00:46;;;;;;;43.30;21.10;;;;;;;-0.47;65.45;102441.13;84587;1329;25322;-82
2022/01/24 10:02:59;;;;;;;44.60;21.90;;;;;;;-0.40;65.88;102439.18;84778;1327;22635;-79
2022/01/24 10:05:20;;;;;;;39.50;20.50;;;;;;;-0.32;65.96;102442.39;84665;1329;22602;-82
2022/01/24 10:07:31;;;;;;;41.20;20.10;;;;;;;-0.27;65.69;102441.59;84771;1330;22618;-74
2022/01/24 10:09:43;;;;;;;40.70;20.10;;;;;;;-0.21;65.61;102433.92;84769;1326;25500;-75
2022/01/24 10:12:19;;;;;;;41.80;20.10;;;;;;;-0.16;65.31;102430.34;84785;1326;22598;-74
2022/01/24 10:17:18;;;;;;;40.80;20.50;;;;;;;-0.03;65.11;102425.21;84682;1328;22833;-82
2022/01/24 10:19:28;;;;;;;39.60;20.30;;;;;;;0.03;65.40;102426.94;84744;1326;22594;-81
2022/01/24 10:21:46;;;;;;;37.30;20.70;;;;;;;0.08;65.05;102426.98;84783;1325;22734;-75
2022/01/24 10:23:58;;;;;;;46.70;22.60;;;;;;;0.13;64.64;102421.66;84633;1331;23920;-74
2022/01/24 10:26:12;;;;;;;39.20;20.30;;;;;;;0.18;65.41;102420.69;84774;1323;22609;-81
2022/01/24 10:28:30;;;;;;;42.10;20.40;;;;;;;0.29;65.11;102417.79;84720;1328;25468;-81
2022/01/24 10:30:43;;;;;;;37.20;20.80;;;;;;;0.37;64.70;102419.82;84621;1330;22615;-82
2022/01/24 10:33:00;;;;;;;41.00;22.30;;;;;;;0.44;64.89;102412.52;84776;1325;22606;-80
2022/01/24 10:35:30;;;;;;;43.90;21.70;;;;;;;0.48;64.40;102409.07;84788;1326;24263;-85
2022/01/24 10:37:40;;;;;;;37.80;19.60;;;;;;;0.50;63.98;102404.34;84676;1329;22569;-82
2022/01/24 10:39:59;;;;;;;40.40;20.80;;;;;;;0.51;63.80;102402.48;84787;1321;22608;-82
2022/01/24 10:42:52;;;;;;;36.50;18.10;;;;;;;0.54;63.80;102400.16;84727;1329;22696;-82
2022/01/24 10:45:15;;;;;;;41.80;21.20;;;;;;;0.57;63.71;102398.05;84602;1331;22741;-81
2022/01/24 10:47:30;;;;;;;37.20;20.60;;;;;;;0.65;63.86;102394.88;84675;1331;23992;-80
2022/01/24 10:49:40;;;;;;;41.30;20.20;;;;;;;0.71;63.81;102394.95;84760;1326;24235;-81
2022/01/24 10:51:53;;;;;;;36.80;19.90;;;;;;;0.77;63.64;102396.16;84814;1326;22596;-74
2022/01/24 10:54:06;;;;;;;40.30;19.10;;;;;;;0.78;63.41;102395.02;84775;1326;22629;-76
2022/01/24 10:56:39;;;;;;;35.50;20.10;;;;;;;0.79;63.14;102395.19;84792;1330;22602;-76
2022/01/24 10:58:48;;;;;;;39.30;18.90;;;;;;;0.78;63.26;102395.69;84634;1329;23988;-76
2022/01/24 11:00:59;;;;;;;;;;;;;;;0.77;63.12;102392.20;84681;1329;22702;-75
2022/01/24 11:03:18;;;;;;;36.10;18.60;;;;;;;0.74;63.34;102393.01;84719;1324;22596;-76
2022/01/24 11:05:37;;;;;;;33.20;17.90;;;;;;;0.77;63.12;102389.29;84611;1333;22742;-76